sensor_id;sensor_type;location;lat;lon;timestamp;pressure;altitude;pressure_sealevel;temperature;humidity
28289;BME280;15558;50.874;6.964;2022-12-18T00:00:31;102560.56;;;0.10;61.23
28289;BME280;15558;50.874;6.964;2022-12-18T00:03:00;102552.59;;;0.15;60.84
28289;BME280;15558;50.874;6.964;2022-12-18T00:05:26;102567.41;;;0.14;60.75
28289;BME280;15558;50.874;6.964;2022-12-18T00:07:52;102566.97;;;0.10;60.92
28289;BME280;15558;50.874;6.964;2022-12-18T00:10:18;102564.38;;;0.09;61.02
28289;BME280;15558;50.874;6.964;2022-12-18T00:12:53;102558.88;;;0.09;61.19
28289;BME280;15558;50.874;6.964;2022-12-18T00:15:33;102556.38;;;0.14;61.17
28289;BME280;15558;50.874;6.964;2022-12-18T00:18:08;102570.19;;;0.14;60.98
28289;BME280;15558;50.874;6.964;2022-12-18T00:20:45;102564.47;;;0.15;60.64
28289;BME280;15558;50.874;6.964;2022-12-18T00:26:16;102574.81;;;-0.01;61.14
28289;BME280;15558;50.874;6.964;2022-12-18T00:28:43;102570.38;;;-0.02;61.70
28289;BME280;15558;50.874;6.964;2022-12-18T00:31:10;102583.38;;;0.04;61.52
28289;BME280;15558;50.874;6.964;2022-12-18T00:33:36;102580.44;;;0.05;61.23
28289;BME280;15558;50.874;6.964;2022-12-18T00:36:07;102572.94;;;0.14;60.73
28289;BME280;15558;50.874;6.964;2022-12-18T00:38:40;102581.19;;;-0.01;61.42
28289;BME280;15558;50.874;6.964;2022-12-18T00:44:26;102584.03;;;-0.08;61.62
28289;BME280;15558;50.874;6.964;2022-12-18T00:46:55;102574.22;;;-0.11;61.43
28289;BME280;15558;50.874;6.964;2022-12-18T00:52:18;102579.84;;;-0.04;61.30
28289;BME280;15558;50.874;6.964;2022-12-18T00:54:46;102570.34;;;-0.16;61.56
28289;BME280;15558;50.874;6.964;2022-12-18T00:57:15;102571.06;;;-0.22;61.62
28289;BME280;15558;50.874;6.964;2022-12-18T00:59:44;102575.06;;;-0.10;61.50
28289;BME280;15558;50.874;6.964;2022-12-18T01:02:13;102572.91;;;-0.01;61.31
28289;BME280;15558;50.874;6.964;2022-12-18T01:04:42;102565.63;;;0.06;61.22
28289;BME280;15558;50.874;6.964;2022-12-18T01:07:08;102560.28;;;0.05;60.94
28289;BME280;15558;50.874;6.964;2022-12-18T01:09:55;102562.38;;;0.03;61.39
28289;BME280;15558;50.874;6.964;2022-12-18T01:12:21;102560.28;;;0.05;61.20
28289;BME280;15558;50.874;6.964;2022-12-18T01:14:52;102567.72;;;0.04;60.94
28289;BME280;15558;50.874;6.964;2022-12-18T01:17:28;102561.81;;;0.07;61.34
28289;BME280;15558;50.874;6.964;2022-12-18T01:20:28;102560.47;;;0.03;60.82
28289;BME280;15558;50.874;6.964;2022-12-18T01:22:55;102564.56;;;0.07;60.67
28289;BME280;15558;50.874;6.964;2022-12-18T01:25:30;102565.63;;;0.06;60.70
28289;BME280;15558;50.874;6.964;2022-12-18T01:27:58;102571.50;;;0.03;60.88
28289;BME280;15558;50.874;6.964;2022-12-18T01:30:24;102565.13;;;0.03;61.04
28289;BME280;15558;50.874;6.964;2022-12-18T01:33:07;102569.59;;;0.04;61.07
28289;BME280;15558;50.874;6.964;2022-12-18T01:35:42;102567.31;;;0.07;60.89
28289;BME280;15558;50.874;6.964;2022-12-18T01:38:09;102570.00;;;0.15;60.60
28289;BME280;15558;50.874;6.964;2022-12-18T01:43:42;102568.28;;;0.00;60.69
28289;BME280;15558;50.874;6.964;2022-12-18T01:46:26;102570.25;;;0.06;60.83
28289;BME280;15558;50.874;6.964;2022-12-18T01:54:54;102570.56;;;0.11;60.59
28289;BME280;15558;50.874;6.964;2022-12-18T01:57:55;102567.22;;;0.01;60.11
28289;BME280;15558;50.874;6.964;2022-12-18T02:00:23;102565.13;;;0.03;60.50
28289;BME280;15558;50.874;6.964;2022-12-18T02:03:00;102566.47;;;0.07;60.10
28289;BME280;15558;50.874;6.964;2022-12-18T02:11:34;102558.53;;;-0.10;60.44
28289;BME280;15558;50.874;6.964;2022-12-18T02:16:49;102563.56;;;-0.14;60.52
28289;BME280;15558;50.874;6.964;2022-12-18T02:29:09;102563.88;;;-0.09;60.43
28289;BME280;15558;50.874;6.964;2022-12-18T02:31:54;102565.28;;;-0.13;60.79
28289;BME280;15558;50.874;6.964;2022-12-18T02:34:39;102569.44;;;-0.17;60.84
28289;BME280;15558;50.874;6.964;2022-12-18T02:37:23;102568.09;;;-0.21;60.99
28289;BME280;15558;50.874;6.964;2022-12-18T02:57:48;102547.94;;;-0.21;60.49
28289;BME280;15558;50.874;6.964;2022-12-18T03:00:23;102551.56;;;-0.21;60.61
28289;BME280;15558;50.874;6.964;2022-12-18T03:03:16;102558.59;;;-0.33;60.67
28289;BME280;15558;50.874;6.964;2022-12-18T03:06:00;102559.53;;;-0.26;60.60
28289;BME280;15558;50.874;6.964;2022-12-18T03:08:39;102559.03;;;-0.29;60.36
28289;BME280;15558;50.874;6.964;2022-12-18T03:11:16;102558.19;;;-0.30;60.34
28289;BME280;15558;50.874;6.964;2022-12-18T03:14:02;102556.50;;;-0.31;60.30
28289;BME280;15558;50.874;6.964;2022-12-18T03:16:35;102551.50;;;-0.49;61.12
28289;BME280;15558;50.874;6.964;2022-12-18T03:19:14;102541.72;;;-0.37;60.22
28289;BME280;15558;50.874;6.964;2022-12-18T03:21:53;102541.38;;;-0.35;60.80
28289;BME280;15558;50.874;6.964;2022-12-18T03:24:26;102535.94;;;-0.28;60.10
28289;BME280;15558;50.874;6.964;2022-12-18T03:27:12;102526.09;;;-0.23;60.34
28289;BME280;15558;50.874;6.964;2022-12-18T03:35:29;102524.13;;;-0.36;60.07
28289;BME280;15558;50.874;6.964;2022-12-18T03:37:56;102520.31;;;-0.36;60.15
28289;BME280;15558;50.874;6.964;2022-12-18T03:40:35;102523.81;;;-0.41;60.47
28289;BME280;15558;50.874;6.964;2022-12-18T03:45:53;102522.00;;;-0.49;60.74
28289;BME280;15558;50.874;6.964;2022-12-18T03:52:01;102525.28;;;-0.45;60.13
28289;BME280;15558;50.874;6.964;2022-12-18T03:54:31;102520.78;;;-0.46;60.39
28289;BME280;15558;50.874;6.964;2022-12-18T03:57:27;102524.72;;;-0.63;60.38
28289;BME280;15558;50.874;6.964;2022-12-18T04:00:09;102517.69;;;-0.66;60.89
28289;BME280;15558;50.874;6.964;2022-12-18T04:08:42;102526.34;;;-0.54;60.23
28289;BME280;15558;50.874;6.964;2022-12-18T04:11:11;102515.41;;;-0.62;60.80
28289;BME280;15558;50.874;6.964;2022-12-18T04:13:37;102507.16;;;-0.48;60.20
28289;BME280;15558;50.874;6.964;2022-12-18T04:16:10;102509.97;;;-0.70;60.58
28289;BME280;15558;50.874;6.964;2022-12-18T04:18:40;102505.53;;;-0.57;60.04
28289;BME280;15558;50.874;6.964;2022-12-18T04:21:06;102510.16;;;-0.71;60.58
28289;BME280;15558;50.874;6.964;2022-12-18T04:23:41;102499.78;;;-0.70;61.03
28289;BME280;15558;50.874;6.964;2022-12-18T04:26:07;102498.56;;;-0.67;60.82
28289;BME280;15558;50.874;6.964;2022-12-18T04:28:42;102502.50;;;-0.62;60.22
28289;BME280;15558;50.874;6.964;2022-12-18T04:31:08;102510.25;;;-0.65;60.46
28289;BME280;15558;50.874;6.964;2022-12-18T04:33:41;102509.97;;;-0.70;60.64
28289;BME280;15558;50.874;6.964;2022-12-18T04:36:10;102500.03;;;-0.79;60.70
28289;BME280;15558;50.874;6.964;2022-12-18T04:38:37;102513.63;;;-0.77;61.32
28289;BME280;15558;50.874;6.964;2022-12-18T04:41:04;102514.81;;;-0.72;60.70
28289;BME280;15558;50.874;6.964;2022-12-18T04:43:33;102515.59;;;-0.86;61.25
28289;BME280;15558;50.874;6.964;2022-12-18T04:46:05;102511.44;;;-0.82;60.62
28289;BME280;15558;50.874;6.964;2022-12-18T04:48:32;102508.00;;;-0.84;61.31
28289;BME280;15558;50.874;6.964;2022-12-18T04:51:04;102506.59;;;-0.80;60.67
28289;BME280;15558;50.874;6.964;2022-12-18T04:53:41;102506.03;;;-0.75;60.63
28289;BME280;15558;50.874;6.964;2022-12-18T04:59:00;102509.25;;;-0.64;60.33
28289;BME280;15558;50.874;6.964;2022-12-18T05:01:38;102511.50;;;-0.68;60.37
28289;BME280;15558;50.874;6.964;2022-12-18T05:25:14;102479.59;;;-0.84;60.69
28289;BME280;15558;50.874;6.964;2022-12-18T05:31:27;102490.56;;;-0.76;60.88
28289;BME280;15558;50.874;6.964;2022-12-18T05:33:58;102493.31;;;-0.76;60.98
28289;BME280;15558;50.874;6.964;2022-12-18T05:36:24;102497.09;;;-0.77;60.63
28289;BME280;15558;50.874;6.964;2022-12-18T05:39:16;102494.84;;;-0.74;60.57
28289;BME280;15558;50.874;6.964;2022-12-18T05:42:01;102509.66;;;-0.75;60.17
28289;BME280;15558;50.874;6.964;2022-12-18T05:44:50;102511.44;;;-0.82;60.12
28289;BME280;15558;50.874;6.964;2022-12-18T05:50:14;102518.53;;;-0.87;61.22
28289;BME280;15558;50.874;6.964;2022-12-18T05:56:37;102539.59;;;-0.94;61.41
28289;BME280;15558;50.874;6.964;2022-12-18T05:59:32;102531.63;;;-0.89;60.96
28289;BME280;15558;50.874;6.964;2022-12-18T06:04:52;102544.59;;;-0.98;61.40
28289;BME280;15558;50.874;6.964;2022-12-18T06:07:39;102555.59;;;-0.90;61.42
28289;BME280;15558;50.874;6.964;2022-12-18T06:19:45;102555.28;;;-0.72;60.83
28289;BME280;15558;50.874;6.964;2022-12-18T06:32:37;102562.56;;;-0.79;61.28
28289;BME280;15558;50.874;6.964;2022-12-18T06:35:08;102553.44;;;-0.80;61.16
28289;BME280;15558;50.874;6.964;2022-12-18T06:37:37;102555.09;;;-0.71;61.23
28289;BME280;15558;50.874;6.964;2022-12-18T06:40:03;102551.09;;;-0.69;61.01
28289;BME280;15558;50.874;6.964;2022-12-18T06:42:29;102550.66;;;-0.72;60.84
28289;BME280;15558;50.874;6.964;2022-12-18T06:44:55;102555.91;;;-0.85;61.34
28289;BME280;15558;50.874;6.964;2022-12-18T06:47:24;102552.59;;;-0.80;60.96
28289;BME280;15558;50.874;6.964;2022-12-18T06:50:03;102551.88;;;-0.74;60.75
28289;BME280;15558;50.874;6.964;2022-12-18T06:52:36;102548.13;;;-0.81;61.10
28289;BME280;15558;50.874;6.964;2022-12-18T06:55:02;102543.84;;;-0.84;61.06
28289;BME280;15558;50.874;6.964;2022-12-18T06:57:35;102539.69;;;-0.80;61.37
28289;BME280;15558;50.874;6.964;2022-12-18T07:00:01;102545.91;;;-0.86;61.57
28289;BME280;15558;50.874;6.964;2022-12-18T07:02:28;102538.88;;;-0.88;61.43
28289;BME280;15558;50.874;6.964;2022-12-18T07:04:57;102546.28;;;-0.89;61.99
28289;BME280;15558;50.874;6.964;2022-12-18T07:07:23;102541.25;;;-0.85;61.40
28289;BME280;15558;50.874;6.964;2022-12-18T07:09:50;102530.56;;;-0.80;61.59
28289;BME280;15558;50.874;6.964;2022-12-18T07:12:16;102542.44;;;-0.80;61.20
28289;BME280;15558;50.874;6.964;2022-12-18T07:14:42;102538.63;;;-0.79;61.44
28289;BME280;15558;50.874;6.964;2022-12-18T07:17:34;102539.50;;;-0.78;61.49
28289;BME280;15558;50.874;6.964;2022-12-18T07:20:03;102540.22;;;-0.84;61.42
28289;BME280;15558;50.874;6.964;2022-12-18T07:22:32;102546.53;;;-0.76;61.68
28289;BME280;15558;50.874;6.964;2022-12-18T07:25:07;102547.22;;;-0.74;61.73
28289;BME280;15558;50.874;6.964;2022-12-18T07:27:34;102535.81;;;-0.71;61.11
28289;BME280;15558;50.874;6.964;2022-12-18T07:30:06;102533.09;;;-0.79;61.39
28289;BME280;15558;50.874;6.964;2022-12-18T07:32:43;102536.78;;;-0.86;61.34
28289;BME280;15558;50.874;6.964;2022-12-18T07:35:21;102533.97;;;-0.78;61.88
28289;BME280;15558;50.874;6.964;2022-12-18T07:38:08;102526.84;;;-0.73;61.70
28289;BME280;15558;50.874;6.964;2022-12-18T07:40:34;102528.38;;;-0.71;61.26
28289;BME280;15558;50.874;6.964;2022-12-18T07:43:00;102529.72;;;-0.67;61.15
28289;BME280;15558;50.874;6.964;2022-12-18T07:45:26;102532.19;;;-0.71;61.36
28289;BME280;15558;50.874;6.964;2022-12-18T07:47:52;102528.59;;;-0.72;61.66
28289;BME280;15558;50.874;6.964;2022-12-18T07:50:27;102538.72;;;-0.72;61.76
28289;BME280;15558;50.874;6.964;2022-12-18T07:52:53;102533.84;;;-0.63;61.01
28289;BME280;15558;50.874;6.964;2022-12-18T07:55:19;102530.22;;;-0.63;61.41
28289;BME280;15558;50.874;6.964;2022-12-18T07:58:27;102534.34;;;-0.59;61.57
28289;BME280;15558;50.874;6.964;2022-12-18T08:01:05;102520.63;;;-0.67;61.81
28289;BME280;15558;50.874;6.964;2022-12-18T08:03:48;102517.78;;;-0.59;61.76
28289;BME280;15558;50.874;6.964;2022-12-18T08:06:18;102514.22;;;-0.45;60.86
28289;BME280;15558;50.874;6.964;2022-12-18T08:08:44;102512.16;;;-0.43;61.03
28289;BME280;15558;50.874;6.964;2022-12-18T08:11:16;102512.91;;;-0.49;61.06
28289;BME280;15558;50.874;6.964;2022-12-18T08:13:46;102501.97;;;-0.43;61.00
28289;BME280;15558;50.874;6.964;2022-12-18T08:16:12;102500.31;;;-0.52;61.64
28289;BME280;15558;50.874;6.964;2022-12-18T08:22:11;102498.47;;;-0.37;60.91
28289;BME280;15558;50.874;6.964;2022-12-18T08:24:40;102495.69;;;-0.51;61.84
28289;BME280;15558;50.874;6.964;2022-12-18T08:27:12;102494.25;;;-0.47;61.37
28289;BME280;15558;50.874;6.964;2022-12-18T08:29:38;102495.50;;;-0.36;61.08
28289;BME280;15558;50.874;6.964;2022-12-18T08:32:37;102486.72;;;-0.53;61.88
28289;BME280;15558;50.874;6.964;2022-12-18T08:35:05;102481.31;;;-0.47;62.05
28289;BME280;15558;50.874;6.964;2022-12-18T08:37:39;102476.44;;;-0.59;61.97
28289;BME280;15558;50.874;6.964;2022-12-18T08:40:32;102472.00;;;-0.46;62.03
28289;BME280;15558;50.874;6.964;2022-12-18T08:42:57;102471.75;;;-0.36;61.58
28289;BME280;15558;50.874;6.964;2022-12-18T08:45:44;102468.34;;;-0.24;60.94
28289;BME280;15558;50.874;6.964;2022-12-18T08:48:26;102478.22;;;-0.30;61.30
28289;BME280;15558;50.874;6.964;2022-12-18T08:50:54;102480.59;;;-0.27;61.58
28289;BME280;15558;50.874;6.964;2022-12-18T08:53:26;102468.63;;;-0.19;61.36
28289;BME280;15558;50.874;6.964;2022-12-18T08:55:53;102472.22;;;-0.19;61.52
28289;BME280;15558;50.874;6.964;2022-12-18T08:58:28;102476.22;;;-0.21;61.02
28289;BME280;15558;50.874;6.964;2022-12-18T09:00:59;102467.28;;;-0.09;61.18
28289;BME280;15558;50.874;6.964;2022-12-18T09:03:38;102474.44;;;-0.14;61.47
28289;BME280;15558;50.874;6.964;2022-12-18T09:06:05;102474.53;;;0.06;61.35
28289;BME280;15558;50.874;6.964;2022-12-18T09:08:34;102460.34;;;0.09;61.09
28289;BME280;15558;50.874;6.964;2022-12-18T09:11:00;102452.16;;;0.16;60.81
28289;BME280;15558;50.874;6.964;2022-12-18T09:13:26;102462.16;;;0.17;60.65
28289;BME280;15558;50.874;6.964;2022-12-18T09:15:53;102461.38;;;0.23;60.92
28289;BME280;15558;50.874;6.964;2022-12-18T09:18:20;102471.19;;;0.39;60.69
28289;BME280;15558;50.874;6.964;2022-12-18T09:20:57;102458.38;;;0.53;60.15
28289;BME280;15558;50.874;6.964;2022-12-18T09:23:23;102457.84;;;0.78;59.71
28289;BME280;15558;50.874;6.964;2022-12-18T09:25:58;102465.25;;;1.12;58.78
28289;BME280;15558;50.874;6.964;2022-12-18T09:28:27;102452.09;;;1.14;58.31
28289;BME280;15558;50.874;6.964;2022-12-18T09:31:02;102445.44;;;1.57;57.79
28289;BME280;15558;50.874;6.964;2022-12-18T09:33:29;102437.66;;;2.00;56.41
28289;BME280;15558;50.874;6.964;2022-12-18T09:35:57;102429.41;;;2.46;55.47
28289;BME280;15558;50.874;6.964;2022-12-18T09:38:23;102417.63;;;2.97;54.62
28289;BME280;15558;50.874;6.964;2022-12-18T09:40:50;102418.50;;;3.62;53.12
28289;BME280;15558;50.874;6.964;2022-12-18T09:43:28;102413.81;;;3.82;51.58
28289;BME280;15558;50.874;6.964;2022-12-18T09:45:59;102407.19;;;3.76;51.03
28289;BME280;15558;50.874;6.964;2022-12-18T09:48:34;102403.56;;;3.69;51.33
28289;BME280;15558;50.874;6.964;2022-12-18T09:51:18;102401.22;;;3.53;51.87
28289;BME280;15558;50.874;6.964;2022-12-18T09:53:59;102396.13;;;3.38;52.09
28289;BME280;15558;50.874;6.964;2022-12-18T09:56:31;102402.06;;;3.41;52.28
28289;BME280;15558;50.874;6.964;2022-12-18T09:59:14;102390.78;;;3.49;52.29
28289;BME280;15558;50.874;6.964;2022-12-18T10:01:45;102389.50;;;3.26;52.76
28289;BME280;15558;50.874;6.964;2022-12-18T10:04:37;102387.56;;;2.94;53.57
28289;BME280;15558;50.874;6.964;2022-12-18T10:07:26;102379.63;;;2.91;54.26
28289;BME280;15558;50.874;6.964;2022-12-18T10:10:01;102375.16;;;2.84;53.97
28289;BME280;15558;50.874;6.964;2022-12-18T10:20:45;102373.06;;;2.27;55.96
28289;BME280;15558;50.874;6.964;2022-12-18T10:23:18;102371.81;;;2.36;55.64
28289;BME280;15558;50.874;6.964;2022-12-18T10:28:30;102364.66;;;2.08;56.62
28289;BME280;15558;50.874;6.964;2022-12-18T10:30:56;102355.06;;;2.04;57.29
28289;BME280;15558;50.874;6.964;2022-12-18T10:33:27;102360.16;;;2.00;57.70
28289;BME280;15558;50.874;6.964;2022-12-18T10:35:53;102370.22;;;2.14;57.28
28289;BME280;15558;50.874;6.964;2022-12-18T10:38:24;102379.13;;;2.03;57.13
28289;BME280;15558;50.874;6.964;2022-12-18T10:43:24;102362.94;;;2.07;58.03
28289;BME280;15558;50.874;6.964;2022-12-18T10:54:22;102360.69;;;2.29;56.86
28289;BME280;15558;50.874;6.964;2022-12-18T10:56:52;102341.13;;;2.31;56.88
28289;BME280;15558;50.874;6.964;2022-12-18T10:59:49;102340.25;;;2.24;57.08
28289;BME280;15558;50.874;6.964;2022-12-18T11:03:02;102332.59;;;2.32;56.81
28289;BME280;15558;50.874;6.964;2022-12-18T11:05:42;102328.34;;;2.30;57.19
28289;BME280;15558;50.874;6.964;2022-12-18T11:08:19;102336.00;;;2.28;57.86
28289;BME280;15558;50.874;6.964;2022-12-18T11:19:24;102341.59;;;2.41;57.05
28289;BME280;15558;50.874;6.964;2022-12-18T11:21:52;102338.34;;;2.37;57.79
28289;BME280;15558;50.874;6.964;2022-12-18T11:24:32;102333.22;;;2.28;57.98
28289;BME280;15558;50.874;6.964;2022-12-18T11:27:20;102335.56;;;2.31;57.91
28289;BME280;15558;50.874;6.964;2022-12-18T11:32:53;102328.34;;;2.30;58.05
28289;BME280;15558;50.874;6.964;2022-12-18T11:41:04;102313.78;;;2.15;58.68
28289;BME280;15558;50.874;6.964;2022-12-18T11:43:32;102304.47;;;2.29;58.38
28289;BME280;15558;50.874;6.964;2022-12-18T11:46:05;102304.41;;;2.09;58.63
28289;BME280;15558;50.874;6.964;2022-12-18T11:48:43;102292.94;;;2.25;58.01
28289;BME280;15558;50.874;6.964;2022-12-18T11:51:14;102309.13;;;2.22;58.27
28289;BME280;15558;50.874;6.964;2022-12-18T11:53:43;102295.09;;;2.30;58.23
28289;BME280;15558;50.874;6.964;2022-12-18T11:58:52;102283.53;;;2.07;57.95
28289;BME280;15558;50.874;6.964;2022-12-18T12:10:18;102272.50;;;2.26;57.81
28289;BME280;15558;50.874;6.964;2022-12-18T12:13:10;102268.81;;;2.13;58.17
28289;BME280;15558;50.874;6.964;2022-12-18T12:26:30;102277.97;;;2.07;59.03
28289;BME280;15558;50.874;6.964;2022-12-18T12:29:41;102240.69;;;2.03;59.12
28289;BME280;15558;50.874;6.964;2022-12-18T12:32:20;102258.16;;;2.04;59.18
28289;BME280;15558;50.874;6.964;2022-12-18T12:34:58;102247.56;;;2.26;58.85
28289;BME280;15558;50.874;6.964;2022-12-18T12:39:57;102243.97;;;2.32;58.38
28289;BME280;15558;50.874;6.964;2022-12-18T12:42:33;102251.19;;;2.40;57.72
28289;BME280;15558;50.874;6.964;2022-12-18T12:45:21;102255.44;;;2.29;58.09
28289;BME280;15558;50.874;6.964;2022-12-18T12:47:49;102246.94;;;2.31;58.25
28289;BME280;15558;50.874;6.964;2022-12-18T12:50:26;102264.22;;;2.45;57.67
28289;BME280;15558;50.874;6.964;2022-12-18T12:53:04;102255.91;;;2.39;58.06
28289;BME280;15558;50.874;6.964;2022-12-18T12:55:32;102258.03;;;2.37;58.49
28289;BME280;15558;50.874;6.964;2022-12-18T12:58:03;102258.47;;;2.47;58.18
28289;BME280;15558;50.874;6.964;2022-12-18T13:00:37;102246.56;;;2.59;57.75
28289;BME280;15558;50.874;6.964;2022-12-18T13:03:16;102235.47;;;2.72;57.02
28289;BME280;15558;50.874;6.964;2022-12-18T13:05:48;102246.56;;;2.53;57.60
28289;BME280;15558;50.874;6.964;2022-12-18T13:08:29;102239.72;;;2.43;58.14
28289;BME280;15558;50.874;6.964;2022-12-18T13:10:56;102236.72;;;2.38;58.32
28289;BME280;15558;50.874;6.964;2022-12-18T13:13:51;102249.31;;;2.59;57.69
28289;BME280;15558;50.874;6.964;2022-12-18T13:16:21;102252.94;;;2.53;58.29
28289;BME280;15558;50.874;6.964;2022-12-18T13:18:50;102249.09;;;2.48;58.22
28289;BME280;15558;50.874;6.964;2022-12-18T13:21:29;102247.59;;;2.52;57.51
28289;BME280;15558;50.874;6.964;2022-12-18T13:23:56;102243.53;;;2.35;57.83
28289;BME280;15558;50.874;6.964;2022-12-18T13:26:40;102245.25;;;2.30;58.08
28289;BME280;15558;50.874;6.964;2022-12-18T13:29:06;102223.94;;;2.37;58.08
28289;BME280;15558;50.874;6.964;2022-12-18T13:34:29;102222.66;;;2.45;57.67
28289;BME280;15558;50.874;6.964;2022-12-18T13:37:42;102220.53;;;2.47;57.99
28289;BME280;15558;50.874;6.964;2022-12-18T13:39:45;102222.91;;;2.70;57.35
28289;BME280;15558;50.874;6.964;2022-12-18T13:44:57;102233.34;;;2.61;57.60
28289;BME280;15558;50.874;6.964;2022-12-18T13:47:36;102217.75;;;2.60;57.40
28289;BME280;15558;50.874;6.964;2022-12-18T13:50:22;102226.06;;;2.47;58.38
28289;BME280;15558;50.874;6.964;2022-12-18T13:52:50;102224.59;;;2.45;57.74
28289;BME280;15558;50.874;6.964;2022-12-18T13:55:19;102212.66;;;2.57;57.93
28289;BME280;15558;50.874;6.964;2022-12-18T13:58:04;102209.69;;;2.52;57.93
28289;BME280;15558;50.874;6.964;2022-12-18T14:03:36;102215.63;;;2.62;57.73
28289;BME280;15558;50.874;6.964;2022-12-18T14:06:32;102211.38;;;2.47;57.93
28289;BME280;15558;50.874;6.964;2022-12-18T14:09:00;102198.38;;;2.35;58.34
28289;BME280;15558;50.874;6.964;2022-12-18T14:11:28;102197.53;;;2.53;57.82
28289;BME280;15558;50.874;6.964;2022-12-18T14:13:55;102212.00;;;2.43;58.36
28289;BME280;15558;50.874;6.964;2022-12-18T14:16:25;102197.50;;;2.60;58.18
28289;BME280;15558;50.874;6.964;2022-12-18T14:18:55;102196.44;;;2.54;57.82
28289;BME280;15558;50.874;6.964;2022-12-18T14:21:23;102190.06;;;2.47;57.94
28289;BME280;15558;50.874;6.964;2022-12-18T14:26:39;102187.72;;;2.38;58.19
28289;BME280;15558;50.874;6.964;2022-12-18T14:29:21;102199.66;;;2.45;58.55
28289;BME280;15558;50.874;6.964;2022-12-18T14:35:28;102187.28;;;2.35;58.70
28289;BME280;15558;50.874;6.964;2022-12-18T14:37:48;102193.03;;;2.40;58.58
28289;BME280;15558;50.874;6.964;2022-12-18T14:40:14;102182.16;;;2.32;58.42
28289;BME280;15558;50.874;6.964;2022-12-18T14:42:40;102179.41;;;2.44;57.97
28289;BME280;15558;50.874;6.964;2022-12-18T14:48:00;102176.19;;;2.35;58.45
28289;BME280;15558;50.874;6.964;2022-12-18T14:50:29;102182.19;;;2.38;58.37
28289;BME280;15558;50.874;6.964;2022-12-18T14:53:00;102177.88;;;2.23;58.55
28289;BME280;15558;50.874;6.964;2022-12-18T14:55:26;102173.84;;;2.25;59.04
28289;BME280;15558;50.874;6.964;2022-12-18T14:57:56;102187.69;;;2.32;58.38
28289;BME280;15558;50.874;6.964;2022-12-18T15:00:23;102178.53;;;2.38;58.54
28289;BME280;15558;50.874;6.964;2022-12-18T15:03:00;102163.00;;;2.37;58.62
28289;BME280;15558;50.874;6.964;2022-12-18T15:05:29;102166.81;;;2.23;58.98
28289;BME280;15558;50.874;6.964;2022-12-18T15:08:00;102167.69;;;2.36;58.79
28289;BME280;15558;50.874;6.964;2022-12-18T15:10:35;102162.16;;;2.43;58.09
28289;BME280;15558;50.874;6.964;2022-12-18T15:13:22;102170.47;;;2.49;58.03
28289;BME280;15558;50.874;6.964;2022-12-18T15:15:53;102159.13;;;2.31;58.52
28289;BME280;15558;50.874;6.964;2022-12-18T15:18:21;102156.16;;;2.20;58.78
28289;BME280;15558;50.874;6.964;2022-12-18T15:23:25;102154.88;;;2.16;59.26
28289;BME280;15558;50.874;6.964;2022-12-18T15:25:57;102152.56;;;2.26;59.26
28289;BME280;15558;50.874;6.964;2022-12-18T15:33:46;102155.53;;;2.18;59.18
28289;BME280;15558;50.874;6.964;2022-12-18T15:36:26;102163.19;;;2.29;58.68
28289;BME280;15558;50.874;6.964;2022-12-18T15:38:53;102169.16;;;2.26;59.02
28289;BME280;15558;50.874;6.964;2022-12-18T15:41:19;102146.31;;;1.98;59.81
28289;BME280;15558;50.874;6.964;2022-12-18T15:43:53;102162.09;;;2.17;59.59
28289;BME280;15558;50.874;6.964;2022-12-18T15:46:23;102143.16;;;2.14;59.55
28289;BME280;15558;50.874;6.964;2022-12-18T15:48:52;102157.84;;;2.02;59.71
28289;BME280;15558;50.874;6.964;2022-12-18T15:51:20;102149.97;;;2.05;59.07
28289;BME280;15558;50.874;6.964;2022-12-18T15:53:47;102146.31;;;2.05;59.73
28289;BME280;15558;50.874;6.964;2022-12-18T15:56:16;102142.50;;;1.93;59.56
28289;BME280;15558;50.874;6.964;2022-12-18T15:59:04;102139.50;;;1.94;60.10
28289;BME280;15558;50.874;6.964;2022-12-18T16:01:33;102153.97;;;1.96;59.80
28289;BME280;15558;50.874;6.964;2022-12-18T16:03:59;102141.88;;;2.04;60.11
28289;BME280;15558;50.874;6.964;2022-12-18T16:06:28;102154.22;;;2.01;60.13
28289;BME280;15558;50.874;6.964;2022-12-18T16:09:04;102155.28;;;2.13;59.81
28289;BME280;15558;50.874;6.964;2022-12-18T16:11:33;102162.34;;;2.09;60.04
28289;BME280;15558;50.874;6.964;2022-12-18T16:14:28;102146.31;;;2.05;60.35
28289;BME280;15558;50.874;6.964;2022-12-18T16:16:56;102135.25;;;2.11;60.33
28289;BME280;15558;50.874;6.964;2022-12-18T16:19:22;102138.91;;;1.99;60.49
28289;BME280;15558;50.874;6.964;2022-12-18T16:21:49;102139.97;;;2.23;59.94
28289;BME280;15558;50.874;6.964;2022-12-18T16:24:19;102129.31;;;2.14;60.30
28289;BME280;15558;50.874;6.964;2022-12-18T16:26:47;102130.38;;;2.13;60.51
28289;BME280;15558;50.874;6.964;2022-12-18T16:29:16;102130.16;;;2.21;60.21
28289;BME280;15558;50.874;6.964;2022-12-18T16:34:45;102118.63;;;1.98;60.64
28289;BME280;15558;50.874;6.964;2022-12-18T16:37:12;102124.63;;;2.08;60.96
28289;BME280;15558;50.874;6.964;2022-12-18T16:39:38;102143.16;;;2.01;61.15
28289;BME280;15558;50.874;6.964;2022-12-18T16:42:10;102136.06;;;1.86;61.23
28289;BME280;15558;50.874;6.964;2022-12-18T16:44:48;102131.19;;;1.94;61.56
28289;BME280;15558;50.874;6.964;2022-12-18T16:47:26;102137.81;;;2.00;61.31
28289;BME280;15558;50.874;6.964;2022-12-18T16:49:58;102136.72;;;1.94;61.33
28289;BME280;15558;50.874;6.964;2022-12-18T16:52:24;102114.81;;;1.86;61.47
28289;BME280;15558;50.874;6.964;2022-12-18T16:54:53;102124.81;;;1.87;61.63
28289;BME280;15558;50.874;6.964;2022-12-18T16:57:19;102117.13;;;1.83;61.74
28289;BME280;15558;50.874;6.964;2022-12-18T16:59:46;102131.19;;;1.88;61.78
28289;BME280;15558;50.874;6.964;2022-12-18T17:02:16;102118.63;;;1.85;61.54
28289;BME280;15558;50.874;6.964;2022-12-18T17:04:43;102111.63;;;1.89;61.64
28289;BME280;15558;50.874;6.964;2022-12-18T17:07:09;102124.59;;;1.76;61.86
28289;BME280;15558;50.874;6.964;2022-12-18T17:09:35;102131.81;;;1.71;61.77
28289;BME280;15558;50.874;6.964;2022-12-18T17:12:21;102134.59;;;1.90;61.89